Time;durP1;ratioP1;P1;durP2;ratioP2;P2;SDS_P1;SDS_P2;PMS_P1;PMS_P2;Temp;Humidity;BMP_temperature;BMP_pressure;BME280_temperature;BME280_humidity;BME280_pressure;Samples;Min_cycle;Max_cycle;Signal;HPM_P1;HPM_P2
2023/04/03 00:00:58;;;;;;;1.77;1.60;;;9.10;64.30;8.80;96937.00;;;;5113343;27;20215;-77
2023/04/03 00:03:25;;;;;;;1.60;1.50;;;9.00;65.00;8.80;96935.00;;;;5112998;28;20190;-77
2023/04/03 00:05:53;;;;;;;1.60;1.50;;;9.00;64.10;8.80;96937.00;;;;5112868;27;20218;-77
2023/04/03 00:08:22;;;;;;;1.60;1.40;;;9.00;64.10;8.80;96935.00;;;;5110498;28;20209;-77
2023/04/03 00:10:50;;;;;;;1.43;1.33;;;9.00;64.00;8.70;96937.00;;;;5129458;27;20383;-77
2023/04/03 00:13:17;;;;;;;1.40;1.30;;;9.00;64.00;8.70;96937.00;;;;5119595;28;20197;-78
2023/04/03 00:15:45;;;;;;;1.60;1.47;;;9.00;64.10;8.70;96942.00;;;;5124475;27;20190;-78
2023/04/03 00:18:13;;;;;;;2.00;1.40;;;9.00;64.20;8.70;96937.00;;;;5141031;27;20280;-78
2023/04/03 00:20:41;;;;;;;1.70;1.60;;;9.00;64.30;8.70;96931.00;;;;5117925;27;20590;-78
2023/04/03 00:23:08;;;;;;;1.83;1.50;;;9.00;64.30;8.70;96940.00;;;;5112557;27;20222;-78
2023/04/03 00:25:37;;;;;;;1.43;1.33;;;8.90;64.40;8.70;96939.00;;;;5131164;27;20216;-78
2023/04/03 00:28:06;;;;;;;2.10;1.53;;;8.90;64.30;8.70;96944.00;;;;5115701;27;20204;-79
2023/04/03 00:30:34;;;;;;;1.77;1.20;;;8.90;64.40;8.80;96948.00;;;;5117616;27;20222;-78
2023/04/03 00:33:01;;;;;;;2.03;1.70;;;9.00;64.70;8.80;96941.00;;;;5115094;27;20277;-78
2023/04/03 00:35:30;;;;;;;1.90;1.60;;;9.00;64.50;8.80;96942.00;;;;5126085;27;20285;-78
2023/04/03 00:37:57;;;;;;;1.40;1.30;;;8.90;64.30;8.80;96937.00;;;;5113375;28;20191;-78
2023/04/03 00:40:26;;;;;;;1.37;1.27;;;8.90;64.40;8.80;96942.00;;;;5114555;27;20307;-78
2023/04/03 00:43:00;;;;;;;1.70;1.60;;;8.90;64.50;8.80;96947.00;;;;5113563;27;20274;-78
2023/04/03 00:45:35;;;;;;;3.00;1.37;;;9.00;64.30;8.80;96940.00;;;;5107220;27;20199;-78
2023/04/03 00:48:07;;;;;;;1.27;1.00;;;9.00;64.60;8.70;96942.00;;;;5119176;27;20280;-78
2023/04/03 00:50:40;;;;;;;1.27;1.13;;;9.00;64.20;8.70;96936.00;;;;5119704;27;20245;-77
2023/04/03 00:53:13;;;;;;;1.13;1.10;;;9.00;64.30;8.70;96939.00;;;;5111156;28;20195;-78
2023/04/03 00:55:42;;;;;;;1.40;1.30;;;8.90;64.20;8.70;96941.00;;;;5111187;28;20273;-78
2023/04/03 00:58:15;;;;;;;1.20;1.10;;;8.90;64.30;8.70;96931.00;;;;5103131;28;20196;-78
2023/04/03 01:00:49;;;;;;;1.20;1.13;;;9.00;64.50;8.70;96932.00;;;;5112723;28;20702;-78
2023/04/03 01:03:16;;;;;;;1.27;1.10;;;8.90;64.30;8.70;96929.00;;;;5118869;28;20204;-78
2023/04/03 01:05:43;;;;;;;1.03;0.93;;;8.90;64.20;8.70;96930.00;;;;5131610;28;20194;-77
2023/04/03 01:08:11;;;;;;;1.33;1.23;;;8.90;64.20;8.70;96929.00;;;;5118270;27;20206;-78
2023/04/03 01:10:38;;;;;;;1.20;1.10;;;8.90;64.90;8.70;96932.00;;;;5125839;28;20225;-79
2023/04/03 01:13:21;;;;;;;1.53;1.43;;;8.90;64.20;8.70;96929.00;;;;5127165;28;20277;-78
2023/04/03 01:15:48;;;;;;;1.20;1.10;;;8.90;64.20;8.70;96937.00;;;;5112518;28;20710;-78
2023/04/03 01:18:16;;;;;;;0.90;0.90;;;8.90;64.20;8.70;96939.00;;;;5121551;28;20198;-78
2023/04/03 01:21:41;;;;;;;1.30;1.20;;;9.00;64.40;8.80;96941.00;;;;5121751;28;20223;-78
2023/04/03 01:24:32;;;;;;;1.73;1.30;;;9.00;64.30;8.80;96941.00;;;;5115338;28;20226;-78
2023/04/03 01:27:03;;;;;;;1.27;1.17;;;9.00;64.30;8.80;96943.00;;;;5094893;28;20282;-78
2023/04/03 01:29:32;;;;;;;0.97;0.93;;;9.00;64.40;8.80;96945.00;;;;5125718;28;20301;-78
2023/04/03 01:32:03;;;;;;;1.20;1.10;;;9.00;64.10;8.80;96949.00;;;;5093517;28;20206;-78
2023/04/03 01:34:31;;;;;;;1.20;1.10;;;9.00;64.10;8.80;96944.00;;;;5122784;28;20197;-77
2023/04/03 01:36:59;;;;;;;0.80;0.80;;;9.00;64.10;8.80;96945.00;;;;5113796;28;20194;-77
2023/04/03 01:39:26;;;;;;;0.93;0.93;;;9.00;64.00;8.80;96947.00;;;;5123113;28;20209;-78
2023/04/03 01:41:54;;;;;;;1.27;1.20;;;9.00;63.90;8.80;96953.00;;;;5105136;27;20215;-78
2023/04/03 01:44:21;;;;;;;1.10;1.10;;;9.00;63.80;8.70;96956.00;;;;5120128;28;20225;-78
2023/04/03 01:46:49;;;;;;;1.60;1.33;;;9.00;63.60;8.70;96955.00;;;;5107177;28;20190;-78
2023/04/03 01:49:17;;;;;;;2.07;1.50;;;9.00;63.80;8.70;96956.00;;;;5126104;27;20270;-78
2023/04/03 01:51:45;;;;;;;1.27;1.17;;;8.90;63.80;8.70;96948.00;;;;5122475;28;20205;-77
2023/04/03 01:54:12;;;;;;;1.50;1.20;;;8.90;63.90;8.70;96950.00;;;;5129122;27;20198;-78
2023/04/03 01:56:39;;;;;;;1.80;1.30;;;8.90;64.00;8.70;96950.00;;;;5112285;28;20798;-78
2023/04/03 01:59:06;;;;;;;1.50;1.40;;;8.90;64.00;8.60;96947.00;;;;5132919;27;20213;-78
2023/04/03 02:01:33;;;;;;;1.50;1.40;;;8.90;64.00;8.60;96947.00;;;;5136004;27;20217;-78
2023/04/03 02:04:01;;;;;;;0.97;0.97;;;8.90;64.20;8.60;96949.00;;;;5131015;27;20911;-78
2023/04/03 02:06:30;;;;;;;1.40;1.27;;;8.90;64.30;8.60;96950.00;;;;5118863;27;20629;-78
2023/04/03 02:08:57;;;;;;;1.10;1.00;;;8.90;64.00;8.60;96947.00;;;;5127231;27;20220;-78
2023/04/03 02:11:24;;;;;;;1.77;1.40;;;8.90;64.20;8.60;96939.00;;;;5116399;27;20633;-78
2023/04/03 02:13:52;;;;;;;1.20;1.10;;;8.90;64.10;8.60;96945.00;;;;5115942;28;20187;-78
2023/04/03 02:16:19;;;;;;;2.27;1.20;;;8.90;64.10;8.60;96939.00;;;;5124591;27;20197;-78
2023/04/03 02:18:46;;;;;;;1.00;1.00;;;8.90;64.10;8.60;96940.00;;;;5136450;27;20602;-78
2023/04/03 02:21:13;;;;;;;1.20;1.10;;;8.90;64.00;8.60;96940.00;;;;5115393;27;20225;-78
2023/04/03 02:23:42;;;;;;;2.20;1.17;;;8.80;63.90;8.60;96944.00;;;;5115757;27;20637;-77
2023/04/03 02:26:12;;;;;;;1.37;1.27;;;8.80;63.90;8.50;96941.00;;;;5118164;27;20195;-78
2023/04/03 02:28:40;;;;;;;1.00;1.00;;;8.80;63.90;8.50;96945.00;;;;5126183;27;20271;-78
2023/04/03 02:31:09;;;;;;;1.60;1.30;;;8.80;63.80;8.50;96937.00;;;;5135577;27;20680;-78
2023/04/03 02:33:38;;;;;;;1.10;1.00;;;8.80;64.00;8.50;96936.00;;;;5100808;27;20197;-78
2023/04/03 02:36:08;;;;;;;1.47;1.30;;;8.80;64.20;8.50;96932.00;;;;5112601;27;20195;-78
2023/04/03 02:38:36;;;;;;;1.20;1.10;;;8.80;64.10;8.50;96938.00;;;;5126637;27;20244;-78
2023/04/03 02:41:06;;;;;;;1.20;1.20;;;8.80;64.20;8.50;96933.00;;;;5121378;27;20225;-78
2023/04/03 02:43:34;;;;;;;1.13;1.03;;;8.80;64.30;8.50;96938.00;;;;5117869;27;20216;-78
2023/04/03 02:46:02;;;;;;;0.97;0.87;;;8.70;64.30;8.50;96932.00;;;;5123078;28;20286;-77
2023/04/03 02:48:29;;;;;;;1.73;1.40;;;8.80;64.30;8.50;96934.00;;;;5118529;28;20290;-77
2023/04/03 02:50:57;;;;;;;1.37;1.27;;;8.80;64.30;8.60;96937.00;;;;5120389;28;20207;-78
2023/04/03 02:53:24;;;;;;;1.40;1.30;;;8.80;64.30;8.50;96934.00;;;;5140550;27;20236;-78
2023/04/03 02:55:52;;;;;;;1.33;1.20;;;8.80;64.30;8.50;96938.00;;;;5099762;28;20282;-78
2023/04/03 02:58:21;;;;;;;1.40;1.30;;;8.80;64.10;8.50;96936.00;;;;5061197;28;20199;-78
2023/04/03 03:00:48;;;;;;;1.40;1.30;;;8.80;64.10;8.50;96939.00;;;;5112837;27;20305;-78
2023/04/03 03:03:15;;;;;;;1.20;1.10;;;8.80;64.20;8.50;96942.00;;;;5108274;27;20201;-78
2023/04/03 03:05:43;;;;;;;1.20;1.10;;;8.80;64.50;8.50;96941.00;;;;5133058;27;20190;-78
2023/04/03 03:08:10;;;;;;;1.00;1.00;;;8.80;64.30;8.50;96933.00;;;;5118012;27;20290;-78
2023/04/03 03:10:37;;;;;;;1.40;1.30;;;8.80;64.30;8.60;96943.00;;;;5115198;28;20238;-78
2023/04/03 03:13:04;;;;;;;1.40;1.30;;;8.80;64.30;8.60;96941.00;;;;5109142;27;20198;-78
2023/04/03 03:15:33;;;;;;;1.50;1.40;;;8.80;64.50;8.60;96926.00;;;;5108781;27;20195;-78
2023/04/03 03:18:00;;;;;;;1.40;1.30;;;8.80;64.20;8.60;96944.00;;;;5120299;27;20285;-78
2023/04/03 03:20:28;;;;;;;1.30;1.20;;;8.80;64.30;8.50;96943.00;;;;5119427;27;20226;-78
2023/04/03 03:22:55;;;;;;;1.77;1.40;;;8.80;64.20;8.50;96937.00;;;;5094173;28;20313;-78
2023/04/03 03:25:22;;;;;;;2.03;1.50;;;8.80;64.50;8.50;96944.00;;;;5082928;28;20278;-78
2023/04/03 03:27:50;;;;;;;1.73;1.47;;;8.70;64.40;8.50;96935.00;;;;5106300;28;20197;-78
2023/04/03 03:30:17;;;;;;;1.57;1.30;;;8.70;64.50;8.50;96942.00;;;;5121736;27;20220;-78
2023/04/03 03:32:46;;;;;;;1.30;1.20;;;8.70;64.40;8.50;96932.00;;;;5112098;28;20622;-78
2023/04/03 03:35:13;;;;;;;1.70;1.60;;;8.70;64.40;8.50;96938.00;;;;5112927;27;20193;-78
2023/04/03 03:37:40;;;;;;;1.57;1.33;;;8.70;64.50;8.50;96941.00;;;;5106689;27;20616;-78
2023/04/03 03:40:12;;;;;;;1.40;1.30;;;8.70;64.60;8.50;96936.00;;;;5111471;27;20293;-78
2023/04/03 03:42:39;;;;;;;1.70;1.57;;;8.70;64.70;8.50;96940.00;;;;5092671;27;20570;-78
2023/04/03 03:45:09;;;;;;;1.57;1.47;;;8.70;64.70;8.50;96929.00;;;;5127219;27;20198;-78
2023/04/03 03:47:45;;;;;;;1.50;1.40;;;8.70;64.90;8.50;96943.00;;;;5095190;28;20206;-78
2023/04/03 03:50:14;;;;;;;1.83;1.47;;;8.70;64.90;8.50;96944.00;;;;5106590;28;20230;-77
2023/04/03 03:52:41;;;;;;;1.50;1.40;;;8.70;64.80;8.50;96946.00;;;;5120261;27;20198;-78
2023/04/03 03:55:09;;;;;;;1.63;1.53;;;8.70;64.70;8.50;96948.00;;;;5103774;28;20199;-77
2023/04/03 03:57:36;;;;;;;1.60;1.50;;;8.70;64.70;8.50;96948.00;;;;5123212;27;20194;-78
2023/04/03 04:00:05;;;;;;;1.53;1.43;;;8.70;64.70;8.50;96952.00;;;;5121511;27;20293;-78
2023/04/03 04:02:34;;;;;;;1.70;1.60;;;8.70;64.60;8.50;96945.00;;;;5124168;27;20699;-78
2023/04/03 04:05:01;;;;;;;2.03;1.60;;;8.70;64.70;8.50;96947.00;;;;5132306;27;20272;-78
2023/04/03 04:07:30;;;;;;;1.57;1.47;;;8.70;64.80;8.50;96943.00;;;;5124309;27;20262;-77
2023/04/03 04:09:58;;;;;;;1.50;1.40;;;8.70;64.60;8.50;96950.00;;;;5107909;28;20289;-78
2023/04/03 04:12:25;;;;;;;1.57;1.43;;;8.80;64.50;8.50;96942.00;;;;5128706;27;20727;-78
2023/04/03 04:14:52;;;;;;;1.50;1.40;;;8.80;64.50;8.50;96951.00;;;;5111506;28;20285;-78
2023/04/03 04:17:21;;;;;;;1.80;1.70;;;8.70;64.50;8.50;96944.00;;;;5127649;27;20272;-78
2023/04/03 04:19:48;;;;;;;1.50;1.40;;;8.70;64.50;8.50;96946.00;;;;5115458;27;20727;-78
2023/04/03 04:22:15;;;;;;;1.73;1.37;;;8.70;64.50;8.50;96943.00;;;;5119813;27;20309;-78
2023/04/03 04:24:44;;;;;;;2.60;1.80;;;8.70;64.70;8.50;96949.00;;;;5094231;27;20202;-78
2023/04/03 04:27:11;;;;;;;1.80;1.70;;;8.70;64.80;8.50;96945.00;;;;5126129;27;20199;-77
2023/04/03 04:29:39;;;;;;;1.80;1.67;;;8.80;64.90;8.50;96951.00;;;;5114185;27;20305;-78
2023/04/03 04:32:06;;;;;;;1.60;1.50;;;8.70;64.80;8.50;96951.00;;;;5133580;27;20666;-78
2023/04/03 04:34:33;;;;;;;1.40;1.30;;;8.70;64.70;8.50;96955.00;;;;5125742;27;20269;-77
2023/04/03 04:37:01;;;;;;;1.77;1.67;;;8.70;64.80;8.50;96955.00;;;;5114111;27;20190;-78
2023/04/03 04:39:28;;;;;;;1.87;1.77;;;8.80;64.80;8.50;96952.00;;;;5118999;27;20295;-78
2023/04/03 04:41:57;;;;;;;2.20;1.53;;;8.70;64.80;8.50;96957.00;;;;5131960;27;20780;-78
2023/04/03 04:44:24;;;;;;;2.47;1.70;;;8.80;64.60;8.50;96962.00;;;;5114227;27;20186;-78
2023/04/03 04:46:51;;;;;;;1.60;1.40;;;8.70;64.60;8.50;96961.00;;;;5110577;28;20294;-78
2023/04/03 04:49:19;;;;;;;2.10;1.90;;;8.70;64.70;8.50;96969.00;;;;5115198;27;20230;-78
2023/04/03 04:51:46;;;;;;;2.17;1.80;;;8.70;64.60;8.50;96968.00;;;;5109967;28;20638;-77
2023/04/03 04:54:13;;;;;;;2.00;1.73;;;8.80;64.60;8.50;96969.00;;;;5118215;27;20199;-78
2023/04/03 04:56:40;;;;;;;1.77;1.67;;;8.70;64.50;8.50;96972.00;;;;5125112;27;20731;-78
2023/04/03 04:59:10;;;;;;;2.17;1.77;;;8.70;64.70;8.50;96976.00;;;;5099916;28;20210;-78
2023/04/03 05:01:37;;;;;;;1.83;1.73;;;8.70;64.70;8.50;96973.00;;;;5121652;28;20641;-77
2023/04/03 05:04:04;;;;;;;1.77;1.50;;;8.70;64.70;8.50;96973.00;;;;5111762;28;20203;-78
2023/04/03 05:06:32;;;;;;;1.40;1.30;;;8.70;64.70;8.50;96968.00;;;;5128697;28;20196;-78
2023/04/03 05:09:00;;;;;;;3.37;1.80;;;8.70;64.70;8.50;96963.00;;;;5112860;28;20222;-77
2023/04/03 05:11:27;;;;;;;2.90;1.87;;;8.70;64.60;8.50;96969.00;;;;5122459;28;20198;-77
2023/04/03 05:13:55;;;;;;;1.90;1.70;;;8.70;64.70;8.50;96969.00;;;;5126687;28;20193;-77
2023/04/03 05:16:25;;;;;;;1.70;1.60;;;8.70;64.60;8.50;96971.00;;;;5125519;28;20203;-77
2023/04/03 05:18:52;;;;;;;3.67;1.67;;;8.70;64.50;8.50;96980.00;;;;5116245;28;20247;-78
2023/04/03 05:21:21;;;;;;;1.90;1.80;;;8.70;64.60;8.60;96977.00;;;;5124203;28;20252;-78
2023/04/03 05:23:48;;;;;;;1.73;1.63;;;8.80;64.80;8.60;96976.00;;;;5126963;28;20195;-78
2023/04/03 05:26:16;;;;;;;3.63;1.90;;;8.70;64.70;8.60;96974.00;;;;5128284;28;20224;-78
2023/04/03 05:28:43;;;;;;;2.20;2.00;;;8.80;64.70;8.60;96980.00;;;;5132864;27;20277;-78
2023/04/03 05:31:10;;;;;;;2.23;1.80;;;8.80;64.70;8.60;96978.00;;;;5133740;27;20285;-78
2023/04/03 05:33:39;;;;;;;1.97;1.87;;;8.80;64.70;8.60;96974.00;;;;5129607;27;20269;-78
2023/04/03 05:36:08;;;;;;;1.80;1.60;;;8.80;64.60;8.60;96986.00;;;;5104478;27;20198;-78
2023/04/03 05:38:37;;;;;;;2.10;2.00;;;8.80;64.40;8.60;96978.00;;;;5113086;27;20205;-77
2023/04/03 05:41:04;;;;;;;1.93;1.50;;;8.80;64.50;8.60;96982.00;;;;5134102;27;20229;-77
2023/04/03 05:43:33;;;;;;;4.00;2.20;;;8.80;65.20;8.60;96981.00;;;;5117108;27;20307;-78
2023/04/03 05:46:00;;;;;;;2.10;1.90;;;8.80;64.50;8.60;96975.00;;;;5116592;27;20258;-78
2023/04/03 05:48:28;;;;;;;2.20;1.90;;;8.80;64.70;8.70;96978.00;;;;5100043;27;20206;-78
2023/04/03 05:50:57;;;;;;;2.30;2.10;;;8.80;64.70;8.70;96987.00;;;;5126331;27;20244;-77
2023/04/03 05:53:30;;;;;;;3.27;2.03;;;8.80;64.70;8.70;96985.00;;;;5112557;27;20651;-77
2023/04/03 05:55:59;;;;;;;2.47;2.27;;;8.90;64.90;8.70;96987.00;;;;5112234;27;20202;-78
2023/04/03 05:58:26;;;;;;;2.30;2.17;;;8.80;64.70;8.70;96997.00;;;;5120008;27;20202;-77
2023/04/03 06:00:54;;;;;;;2.30;2.10;;;8.90;64.60;8.70;96983.00;;;;5125117;27;20210;-79
2023/04/03 06:03:22;;;;;;;2.57;2.37;;;8.90;64.60;8.80;96990.00;;;;5141106;27;20229;-78
2023/04/03 06:05:49;;;;;;;2.43;2.23;;;8.90;64.50;8.80;96983.00;;;;5133318;27;20187;-80
2023/04/03 06:08:19;;;;;;;2.63;2.00;;;8.90;64.60;8.90;96989.00;;;;5139414;27;20198;-80
2023/04/03 06:10:47;;;;;;;2.37;2.10;;;8.90;64.60;8.90;96991.00;;;;5149290;27;20273;-80
2023/04/03 06:13:15;;;;;;;2.43;2.23;;;8.90;64.60;9.00;96997.00;;;;5149897;27;20291;-80
2023/04/03 06:15:46;;;;;;;2.00;1.90;;;9.00;64.70;9.10;96997.00;;;;5135717;27;20588;-80
2023/04/03 06:18:15;;;;;;;4.03;2.80;;;9.00;64.70;9.10;96997.00;;;;5145661;27;20182;-80
2023/04/03 06:20:43;;;;;;;2.07;1.87;;;9.10;64.70;9.10;96992.00;;;;5118861;27;20210;-79
2023/04/03 06:23:13;;;;;;;3.07;2.00;;;9.10;64.60;9.20;96990.00;;;;5138512;27;20232;-80
2023/04/03 06:25:41;;;;;;;2.73;2.10;;;9.10;64.50;9.20;97001.00;;;;5149263;27;20680;-80
2023/04/03 06:28:10;;;;;;;2.23;1.97;;;9.20;64.40;9.20;97001.00;;;;5136646;27;20194;-80
2023/04/03 06:30:40;;;;;;;2.97;1.90;;;9.20;64.50;9.30;97017.00;;;;5138146;27;20248;-80
2023/04/03 06:33:07;;;;;;;1.97;1.87;;;9.20;64.50;9.30;97010.00;;;;5136042;27;20202;-80
2023/04/03 06:35:36;;;;;;;3.07;2.50;;;9.30;65.40;9.40;97009.00;;;;5119788;27;20206;-80
2023/04/03 06:38:09;;;;;;;2.13;2.00;;;9.30;65.00;9.50;97005.00;;;;5110905;27;20206;-80
2023/04/03 06:40:37;;;;;;;2.23;2.03;;;9.40;65.10;9.60;97012.00;;;;5105224;27;20656;-80
2023/04/03 06:43:06;;;;;;;2.27;2.07;;;9.40;65.20;9.70;97020.00;;;;5120590;27;20730;-80
2023/04/03 06:45:33;;;;;;;2.23;2.03;;;9.50;65.20;9.70;97015.00;;;;5137671;27;20219;-80
2023/04/03 06:48:01;;;;;;;2.30;2.03;;;9.50;65.00;9.80;97020.00;;;;5137468;27;20885;-80
2023/04/03 06:50:28;;;;;;;2.77;2.13;;;9.60;64.90;9.80;97021.00;;;;5120531;27;20620;-81
2023/04/03 06:52:56;;;;;;;2.67;2.27;;;9.70;65.00;9.90;97009.00;;;;5138959;27;20285;-80
2023/04/03 06:55:24;;;;;;;2.17;1.97;;;9.70;65.00;10.00;97014.00;;;;5119486;27;20706;-80
2023/04/03 06:57:52;;;;;;;2.50;2.30;;;9.80;64.90;10.00;97015.00;;;;5108048;28;20627;-80
2023/04/03 07:00:22;;;;;;;2.23;1.93;;;9.80;64.60;10.00;97019.00;;;;5115836;28;20268;-80
2023/04/03 07:02:49;;;;;;;2.17;2.00;;;9.90;64.40;10.10;97020.00;;;;5121857;27;20222;-80
2023/04/03 07:05:17;;;;;;;2.40;2.10;;;9.90;64.20;10.10;97030.00;;;;5097813;28;20289;-79
2023/04/03 07:07:46;;;;;;;2.43;2.23;;;9.90;63.90;10.10;97028.00;;;;5107047;28;20247;-79
2023/04/03 07:10:14;;;;;;;2.37;1.73;;;10.00;64.00;10.20;97041.00;;;;5119381;27;20272;-80
2023/04/03 07:12:41;;;;;;;3.53;2.20;;;10.00;63.90;10.20;97036.00;;;;5129154;27;20236;-80
2023/04/03 07:15:12;;;;;;;2.30;1.87;;;10.00;63.60;10.20;97036.00;;;;5140554;27;20625;-81
2023/04/03 07:17:41;;;;;;;2.03;1.80;;;10.00;63.50;10.20;97044.00;;;;5138572;27;20201;-80
2023/04/03 07:20:10;;;;;;;2.00;1.90;;;10.00;63.50;10.20;97050.00;;;;5116077;28;20565;-80
2023/04/03 07:22:38;;;;;;;2.50;2.30;;;10.10;63.20;10.10;97049.00;;;;5125776;27;20275;-80
2023/04/03 07:25:07;;;;;;;1.67;1.57;;;10.10;63.00;10.10;97042.00;;;;5109207;27;20187;-80
2023/04/03 07:27:35;;;;;;;2.10;1.90;;;10.00;62.80;10.10;97049.00;;;;5078819;28;20199;-80
2023/04/03 07:30:02;;;;;;;1.97;1.80;;;10.10;62.80;10.10;97052.00;;;;5103192;28;20217;-80
2023/04/03 07:32:30;;;;;;;1.90;1.80;;;10.10;62.60;10.10;97053.00;;;;5125844;27;20220;-80
2023/04/03 07:34:59;;;;;;;3.67;1.97;;;10.10;62.60;10.10;97052.00;;;;5114434;28;20597;-80
2023/04/03 07:37:27;;;;;;;2.57;2.20;;;10.10;62.60;10.10;97051.00;;;;5122980;27;20202;-80
2023/04/03 07:39:56;;;;;;;2.30;2.10;;;10.10;62.50;10.10;97064.00;;;;5141069;27;20218;-80
2023/04/03 07:42:24;;;;;;;2.50;1.90;;;10.10;62.70;10.20;97060.00;;;;5148955;27;20281;-80
2023/04/03 07:44:52;;;;;;;2.33;2.13;;;10.10;62.70;10.20;97060.00;;;;5149720;27;20202;-80
2023/04/03 07:47:20;;;;;;;1.77;1.67;;;10.10;62.60;10.20;97064.00;;;;5130609;27;20194;-80
2023/04/03 07:49:48;;;;;;;2.00;1.80;;;10.10;62.60;10.30;97071.00;;;;5128254;28;20229;-79
2023/04/03 07:52:17;;;;;;;1.87;1.73;;;10.10;62.80;10.40;97070.00;;;;5142447;27;20280;-80
2023/04/03 07:54:44;;;;;;;2.00;1.80;;;10.20;63.00;10.40;97069.00;;;;5086492;28;20286;-80
2023/04/03 07:57:11;;;;;;;2.30;2.10;;;10.20;63.00;10.40;97073.00;;;;5094794;28;20247;-79
2023/04/03 07:59:39;;;;;;;2.13;2.03;;;10.30;62.90;10.40;97071.00;;;;5093903;28;20313;-81
2023/04/03 08:02:07;;;;;;;2.60;1.90;;;10.30;62.30;10.40;97073.00;;;;5106795;27;20201;-80
2023/04/03 08:04:35;;;;;;;2.60;2.10;;;10.30;62.30;10.50;97072.00;;;;5108628;27;20192;-80
2023/04/03 08:07:02;;;;;;;2.43;1.80;;;10.30;62.40;10.50;97070.00;;;;5117163;27;20704;-80
2023/04/03 08:09:31;;;;;;;2.77;1.87;;;10.40;62.70;10.60;97078.00;;;;5124318;27;20627;-80
2023/04/03 08:11:58;;;;;;;2.17;1.87;;;10.40;62.60;10.60;97075.00;;;;5115933;28;20190;-80
2023/04/03 08:14:26;;;;;;;1.90;1.80;;;10.40;62.50;10.70;97076.00;;;;5099465;28;20195;-80
2023/04/03 08:16:53;;;;;;;1.90;1.80;;;10.50;62.70;10.80;97068.00;;;;5095995;28;20206;-80
2023/04/03 08:19:21;;;;;;;2.17;1.97;;;10.50;62.80;10.90;97079.00;;;;5104050;28;20283;-79
2023/04/03 08:21:48;;;;;;;2.10;1.90;;;10.60;62.80;11.00;97070.00;;;;5118634;28;20195;-80
2023/04/03 08:24:16;;;;;;;2.00;1.90;;;10.70;62.90;11.10;97072.00;;;;5116001;28;20271;-80
2023/04/03 08:26:44;;;;;;;4.13;2.33;;;10.70;62.80;11.20;97076.00;;;;5117937;27;20226;-80
2023/04/03 08:29:13;;;;;;;2.27;2.10;;;10.80;62.60;11.30;97075.00;;;;5129853;27;20736;-80
2023/04/03 08:31:40;;;;;;;2.10;1.90;;;10.90;62.60;11.40;97080.00;;;;5116102;27;20194;-80
2023/04/03 08:34:08;;;;;;;2.00;1.80;;;11.00;63.10;11.40;97085.00;;;;5134252;27;20284;-80
2023/04/03 08:36:36;;;;;;;2.33;1.90;;;11.00;62.40;11.50;97077.00;;;;5133708;27;20197;-79
2023/04/03 08:39:05;;;;;;;2.43;2.10;;;11.10;62.40;11.50;97077.00;;;;5114912;28;20250;-79
2023/04/03 08:41:39;;;;;;;1.87;1.77;;;11.20;62.20;11.60;97075.00;;;;5116662;27;20547;-80
2023/04/03 08:44:25;;;;;;;2.17;1.97;;;11.20;62.10;11.70;97081.00;;;;5136172;27;20221;-80
2023/04/03 08:47:21;;;;;;;3.40;2.00;;;11.30;61.70;11.80;97081.00;;;;5135593;27;20626;-80
2023/04/03 08:49:54;;;;;;;2.33;1.80;;;11.40;61.50;11.90;97086.00;;;;5137090;27;20266;-80
2023/04/03 08:52:29;;;;;;;3.57;1.70;;;11.50;61.80;12.00;97089.00;;;;5138022;27;20557;-80
2023/04/03 08:55:00;;;;;;;1.50;1.40;;;11.50;61.60;12.10;97088.00;;;;5139104;27;20189;-80
2023/04/03 08:57:34;;;;;;;1.73;1.63;;;11.60;61.30;12.10;97094.00;;;;5129152;27;20213;-80
2023/04/03 09:00:16;;;;;;;2.03;1.40;;;11.70;61.00;12.20;97085.00;;;;5130441;27;20309;-80
2023/04/03 09:02:48;;;;;;;2.40;1.50;;;11.80;60.30;12.20;97097.00;;;;5138323;27;20217;-80
2023/04/03 09:05:19;;;;;;;2.07;1.60;;;11.80;60.10;12.20;97094.00;;;;5137575;27;20240;-80
2023/04/03 09:07:58;;;;;;;3.30;1.50;;;11.80;59.80;12.10;97088.00;;;;5114858;28;20199;-80
2023/04/03 09:10:31;;;;;;;1.50;1.40;;;11.80;59.70;12.20;97096.00;;;;5095439;28;20606;-80
2023/04/03 09:13:08;;;;;;;1.57;1.30;;;11.80;59.40;12.10;97097.00;;;;5100134;28;20194;-80
2023/04/03 09:15:37;;;;;;;1.50;1.40;;;11.80;59.20;12.10;97100.00;;;;5122242;28;20198;-80
2023/04/03 09:18:14;;;;;;;1.50;1.40;;;11.80;59.20;12.10;97100.00;;;;5118356;28;20228;-80
2023/04/03 09:20:52;;;;;;;1.50;1.40;;;11.80;59.20;12.20;97103.00;;;;5113933;28;20226;-79
2023/04/03 09:23:32;;;;;;;1.83;1.20;;;11.90;59.30;12.20;97105.00;;;;5117819;28;20222;-80
2023/04/03 09:26:07;;;;;;;1.83;1.37;;;11.90;59.00;12.30;97107.00;;;;5116499;28;20582;-80
2023/04/03 09:28:41;;;;;;;1.70;1.20;;;11.90;58.70;12.30;97105.00;;;;5118815;28;20230;-81
2023/04/03 09:31:22;;;;;;;1.83;1.40;;;12.00;58.70;12.30;97108.00;;;;5115765;28;20232;-80
2023/04/03 09:33:57;;;;;;;1.43;1.00;;;12.00;58.60;12.30;97107.00;;;;5114815;28;20248;-79
2023/04/03 09:36:47;;;;;;;1.53;1.00;;;12.00;58.50;12.30;97103.00;;;;5119201;28;20210;-80
2023/04/03 09:39:22;;;;;;;1.30;0.90;;;12.00;57.60;12.40;97098.00;;;;5099001;28;20230;-81
2023/04/03 09:42:05;;;;;;;1.47;1.23;;;12.00;58.40;12.40;97109.00;;;;5098307;28;20195;-79
2023/04/03 09:44:36;;;;;;;0.90;0.90;;;12.10;57.90;12.50;97096.00;;;;5103984;28;20215;-82
2023/04/03 09:47:24;;;;;;;0.83;0.83;;;12.10;58.10;12.60;97096.00;;;;5132137;27;20194;-83
2023/04/03 09:49:53;;;;;;;1.07;0.90;;;12.20;57.90;12.60;97095.00;;;;5143001;27;20254;-81
2023/04/03 09:52:28;;;;;;;1.50;1.03;;;12.20;59.00;12.70;97096.00;;;;5143071;28;20220;-81
2023/04/03 09:55:09;;;;;;;1.63;1.20;;;12.30;58.10;12.70;97102.00;;;;5125591;28;20242;-80
2023/04/03 09:57:39;;;;;;;1.10;1.00;;;12.30;57.80;12.70;97097.00;;;;5123056;28;20201;-80
2023/04/03 10:00:21;;;;;;;3.30;1.77;;;12.30;57.30;12.70;97094.00;;;;5123794;28;20219;-80
2023/04/03 10:02:55;;;;;;;2.10;1.10;;;12.30;57.30;12.80;97102.00;;;;5133599;28;20259;-81
2023/04/03 10:05:34;;;;;;;2.53;1.03;;;12.40;57.50;12.80;97097.00;;;;5125927;28;20199;-80
2023/04/03 10:08:26;;;;;;;1.43;1.20;;;12.50;56.80;12.80;97100.00;;;;5129654;28;20203;-80
2023/04/03 10:11:12;;;;;;;1.83;1.10;;;12.50;56.70;12.80;97102.00;;;;5129872;28;20218;-80
2023/04/03 10:13:56;;;;;;;0.90;0.90;;;12.50;56.30;12.90;97091.00;;;;5113400;28;20222;-79
2023/04/03 10:16:30;;;;;;;0.97;0.97;;;12.50;56.40;12.90;97093.00;;;;5137199;28;20400;-79
2023/04/03 10:19:18;;;;;;;1.10;0.90;;;12.60;56.30;12.90;97100.00;;;;5137733;27;20233;-80
2023/04/03 10:21:55;;;;;;;0.80;0.80;;;12.60;55.40;12.80;97102.00;;;;5153094;27;20212;-80
2023/04/03 10:24:32;;;;;;;3.30;1.10;;;12.60;55.70;12.70;97100.00;;;;5134957;28;20220;-79
2023/04/03 10:27:09;;;;;;;0.77;0.77;;;12.60;55.70;12.70;97113.00;;;;5124116;28;20201;-80
2023/04/03 10:29:53;;;;;;;0.80;0.80;;;12.60;55.60;12.80;97108.00;;;;5116422;27;20217;-80
2023/04/03 10:32:59;;;;;;;0.67;0.60;;;12.60;55.40;12.90;97107.00;;;;5118825;27;20197;-79
2023/04/03 10:35:45;;;;;;;0.60;0.60;;;12.70;54.40;13.00;97098.00;;;;5137563;27;20205;-80
2023/04/03 10:38:26;;;;;;;1.00;0.70;;;12.70;54.80;13.20;97093.00;;;;5123424;27;20225;-80
2023/04/03 10:41:02;;;;;;;0.50;0.47;;;12.80;55.60;13.40;97091.00;;;;5115922;28;20300;-80
2023/04/03 10:43:40;;;;;;;1.10;0.70;;;12.90;55.80;13.60;97105.00;;;;5128030;27;20244;-80
2023/04/03 10:46:16;;;;;;;1.30;0.90;;;13.10;55.40;13.60;97100.00;;;;5139573;27;20190;-80
2023/04/03 10:49:15;;;;;;;1.37;0.80;;;13.20;55.30;13.60;97105.00;;;;5144595;27;20254;-79
2023/04/03 10:51:48;;;;;;;3.07;1.00;;;13.20;54.00;13.50;97102.00;;;;5137877;27;20197;-80
2023/04/03 10:54:25;;;;;;;2.20;1.00;;;13.20;54.20;13.40;97102.00;;;;5137554;27;20693;-80
2023/04/03 10:56:58;;;;;;;1.53;0.80;;;13.20;53.90;13.30;97102.00;;;;5137213;27;20546;-81
2023/04/03 10:59:32;;;;;;;2.70;1.00;;;13.10;53.90;13.20;97098.00;;;;5130246;27;20308;-81
2023/04/03 11:02:07;;;;;;;0.90;0.90;;;13.10;54.00;13.20;97103.00;;;;5129730;27;20239;-82
2023/04/03 11:04:41;;;;;;;1.73;1.00;;;13.10;54.40;13.20;97095.00;;;;5136828;27;20777;-83
2023/04/03 11:07:18;;;;;;;0.77;0.70;;;13.10;54.20;13.20;97092.00;;;;5128391;27;20206;-83
2023/04/03 11:09:50;;;;;;;1.67;0.77;;;13.10;53.60;13.20;97087.00;;;;5124587;27;20296;-82
2023/04/03 11:12:28;;;;;;;1.13;0.90;;;13.00;52.90;13.20;97079.00;;;;5113082;28;20237;-81
2023/04/03 11:14:58;;;;;;;1.13;0.80;;;13.00;53.40;13.20;97088.00;;;;5116461;27;20576;-82
2023/04/03 11:17:35;;;;;;;0.83;0.77;;;13.00;53.60;13.20;97087.00;;;;5082922;27;20197;-82
2023/04/03 11:20:17;;;;;;;1.17;0.80;;;13.00;53.50;13.20;97080.00;;;;5132429;27;20300;-82